createdAt,value
2022-09-20T00:02:13.502Z,87.71
2022-09-20T00:04:43.924Z,87.74
2022-09-20T00:07:14.379Z,87.84
2022-09-20T00:09:45.006Z,87.92
2022-09-20T00:12:15.805Z,87.96
2022-09-20T00:14:46.234Z,87.76
2022-09-20T00:17:16.737Z,87.56
2022-09-20T00:19:48.315Z,87.73
2022-09-20T00:22:18.707Z,87.74
2022-09-20T00:24:49.280Z,87.92
2022-09-20T00:27:23.251Z,87.83
2022-09-20T00:29:53.879Z,88.03
2022-09-20T00:32:24.360Z,88.15
2022-09-20T00:35:13.214Z,88.20
2022-09-20T00:37:44.772Z,88.31
2022-09-20T00:40:19.901Z,88.35
2022-09-20T00:42:51.150Z,88.09
2022-09-20T00:45:24.644Z,88.00
2022-09-20T00:48:09.893Z,87.87
2022-09-20T00:51:03.285Z,88.00
2022-09-20T00:53:36.991Z,88.04
2022-09-20T00:56:15.811Z,88.13
2022-09-20T00:58:49.309Z,88.04
2022-09-20T01:01:20.307Z,88.17
2022-09-20T01:03:50.727Z,88.17
2022-09-20T01:06:22.520Z,88.29
2022-09-20T01:08:56.158Z,88.35
2022-09-20T01:11:26.993Z,88.31
2022-09-20T01:13:57.645Z,88.26
2022-09-20T01:16:29.000Z,88.05
2022-09-20T01:19:02.632Z,88.16
2022-09-20T01:21:33.369Z,88.26
2022-09-20T01:24:19.090Z,88.16
2022-09-20T01:27:10.682Z,88.14
2022-09-20T01:29:46.824Z,88.23
2022-09-20T01:32:20.254Z,88.13
2022-09-20T01:34:53.645Z,88.27
2022-09-20T01:37:42.778Z,88.31
2022-09-20T01:40:28.642Z,88.11
2022-09-20T01:43:08.028Z,88.17
2022-09-20T01:45:41.815Z,87.99
2022-09-20T01:48:17.992Z,88.11
2022-09-20T01:50:57.540Z,88.13
2022-09-20T01:53:50.833Z,88.21
2022-09-20T01:56:39.536Z,88.11
2022-09-20T01:59:24.569Z,88.11
2022-09-20T02:02:06.074Z,88.18
2022-09-20T02:04:40.406Z,88.08
2022-09-20T02:07:20.112Z,87.95
2022-09-20T02:10:10.536Z,88.05
2022-09-20T02:12:55.783Z,88.03
2022-09-20T02:15:36.566Z,88.10
2022-09-20T02:18:38.890Z,88.17
2022-09-20T02:21:36.544Z,88.16
2022-09-20T02:24:45.281Z,88.17
2022-09-20T02:27:24.958Z,87.91
2022-09-20T02:30:07.172Z,87.73
2022-09-20T02:32:56.899Z,87.61
2022-09-20T02:36:01.056Z,87.70
2022-09-20T02:39:02.026Z,87.63
2022-09-20T02:41:58.380Z,87.53
2022-09-20T02:44:46.877Z,87.56
2022-09-20T02:47:20.890Z,87.29
2022-09-20T02:50:24.564Z,87.28
2022-09-20T02:53:20.517Z,87.37
2022-09-20T02:56:03.198Z,87.29
2022-09-20T02:58:51.587Z,87.30
2022-09-20T03:01:47.642Z,87.40
2022-09-20T03:04:38.117Z,87.47
2022-09-20T03:07:23.682Z,87.47
2022-09-20T03:10:15.173Z,87.54
2022-09-20T03:13:14.270Z,87.48
2022-09-20T03:15:59.827Z,87.70
2022-09-20T03:18:39.270Z,87.78
2022-09-20T03:21:47.242Z,87.65
2022-09-20T03:24:32.458Z,87.48
2022-09-20T03:27:28.352Z,87.62
2022-09-20T03:30:04.402Z,87.83
2022-09-20T03:32:46.615Z,87.59
2022-09-20T03:35:53.761Z,87.46
2022-09-20T03:38:27.702Z,87.31
2022-09-20T03:41:12.620Z,87.40
2022-09-20T03:44:13.317Z,87.08
2022-09-20T03:46:46.525Z,87.10
2022-09-20T03:49:53.716Z,87.11
2022-09-20T03:52:42.154Z,86.98
2022-09-20T03:55:44.587Z,87.20
2022-09-20T03:58:34.541Z,87.39
2022-09-20T04:01:14.491Z,87.23
2022-09-20T04:03:51.135Z,87.37
2022-09-20T04:06:41.308Z,87.42
2022-09-20T04:09:49.767Z,87.41
2022-09-20T04:12:51.908Z,87.38
2022-09-20T04:15:40.144Z,87.02
2022-09-20T04:18:35.816Z,86.94
2022-09-20T04:21:32.209Z,87.08
2022-09-20T04:24:25.294Z,87.30
2022-09-20T04:27:01.427Z,87.35
2022-09-20T04:29:37.801Z,87.45
2022-09-20T04:32:33.765Z,87.59
2022-09-20T04:35:57.116Z,87.76
2022-09-20T04:38:27.915Z,87.81
2022-09-20T04:41:09.841Z,87.89
2022-09-20T04:44:15.268Z,87.54
2022-09-20T04:46:57.500Z,87.68
2022-09-20T04:49:43.089Z,87.77
2022-09-20T04:52:22.303Z,87.72
2022-09-20T04:54:55.881Z,87.89
2022-09-20T04:57:52.178Z,87.74
2022-09-20T05:00:25.003Z,87.76
2022-09-20T05:03:19.319Z,87.70
2022-09-20T05:06:05.148Z,87.73
2022-09-20T05:08:58.026Z,87.79
2022-09-20T05:11:37.324Z,88.04
2022-09-20T05:14:33.528Z,87.89
2022-09-20T05:17:28.106Z,87.74
2022-09-20T05:20:35.117Z,87.65
2022-09-20T05:23:25.227Z,87.60
2022-09-20T05:26:19.915Z,87.62
2022-09-20T05:29:05.687Z,87.48
2022-09-20T05:31:54.132Z,87.69
2022-09-20T05:34:32.144Z,87.52
2022-09-20T05:37:11.615Z,87.59
2022-09-20T05:39:45.147Z,87.65
2022-09-20T05:42:18.565Z,87.51
2022-09-20T05:45:12.881Z,87.66
2022-09-20T05:47:55.080Z,87.17
2022-09-20T05:50:49.546Z,86.95
2022-09-20T05:53:25.759Z,86.87
2022-09-20T05:56:02.321Z,86.45
2022-09-20T05:58:50.590Z,86.34
2022-09-20T06:01:24.078Z,86.31
2022-09-20T06:04:20.595Z,86.01
2022-09-20T06:06:54.061Z,86.02
2022-09-20T06:09:36.670Z,85.91
2022-09-20T06:12:26.473Z,85.62
2022-09-20T06:15:04.029Z,85.33
2022-09-20T06:17:43.230Z,85.37
2022-09-20T06:20:39.417Z,85.24
2022-09-20T06:23:11.238Z,85.56
2022-09-20T06:25:54.971Z,85.36
2022-09-20T06:28:31.075Z,85.25
2022-09-20T06:31:03.432Z,85.29
2022-09-20T06:33:34.043Z,85.54
2022-09-20T06:36:45.891Z,84.95
2022-09-20T06:39:55.769Z,85.12
2022-09-20T06:42:27.532Z,85.19
2022-09-20T06:44:58.435Z,85.01
2022-09-20T06:47:29.109Z,85.15
2022-09-20T06:50:00.071Z,84.88
2022-09-20T06:52:30.615Z,85.28
2022-09-20T06:55:01.785Z,85.36
2022-09-20T06:57:37.893Z,85.19
2022-09-20T07:00:10.824Z,85.02
2022-09-20T07:02:41.179Z,85.16
2022-09-20T07:05:17.139Z,85.22
2022-09-20T07:07:47.669Z,85.48
2022-09-20T07:10:18.560Z,85.70
2022-09-20T07:12:49.792Z,85.85
2022-09-20T07:15:21.928Z,85.54
2022-09-20T07:17:52.512Z,85.99
2022-09-20T07:20:46.950Z,85.89
2022-09-20T07:23:19.161Z,85.96
2022-09-20T07:25:49.477Z,85.87
2022-09-20T07:28:23.161Z,85.98
2022-09-20T07:30:54.292Z,85.60
2022-09-20T07:33:25.116Z,85.40
2022-09-20T07:35:56.260Z,85.88
2022-09-20T07:38:26.668Z,85.11
2022-09-20T07:41:02.345Z,84.24
2022-09-20T07:43:33.174Z,84.97
2022-09-20T07:46:03.628Z,84.65
2022-09-20T07:48:36.964Z,84.49
2022-09-20T07:51:10.298Z,84.50
2022-09-20T07:53:41.737Z,84.80
2022-09-20T07:56:14.511Z,84.68
2022-09-20T07:58:48.711Z,84.69
2022-09-20T08:01:17.567Z,84.60
2022-09-20T08:03:48.121Z,84.76
2022-09-20T08:06:18.768Z,84.46
2022-09-20T08:08:49.657Z,83.64
2022-09-20T08:11:28.743Z,83.71
2022-09-20T08:14:08.385Z,83.90
2022-09-20T08:16:33.169Z,82.96
2022-09-20T08:19:04.169Z,83.35
2022-09-20T08:21:38.535Z,83.10
2022-09-20T08:24:09.077Z,83.15
2022-09-20T08:26:39.572Z,83.36
2022-09-20T08:29:11.400Z,83.18
2022-09-20T08:31:42.570Z,82.88
2022-09-20T08:34:15.621Z,83.19
2022-09-20T08:36:49.298Z,83.25
2022-09-20T08:42:04.069Z,82.67
2022-09-20T08:44:47.012Z,83.13
2022-09-20T08:47:27.260Z,82.67
2022-09-20T08:49:59.689Z,82.38
2022-09-20T08:52:37.744Z,81.26
2022-09-20T08:55:20.302Z,81.19
2022-09-20T08:57:53.780Z,81.38
2022-09-20T09:00:26.866Z,81.10
2022-09-20T09:03:00.264Z,80.97
2022-09-20T09:05:42.607Z,80.95
2022-09-20T09:08:16.762Z,80.61
2022-09-20T09:10:52.293Z,79.95
2022-09-20T09:13:37.654Z,80.63
2022-09-20T09:16:15.070Z,80.21
2022-09-20T09:18:51.600Z,79.09
2022-09-20T09:21:25.110Z,79.71
2022-09-20T09:24:08.899Z,79.79
2022-09-20T09:26:46.638Z,77.59
2022-09-20T09:29:20.231Z,78.62
2022-09-20T09:31:54.611Z,78.10
2022-09-20T09:34:34.623Z,77.33
2022-09-20T09:37:05.171Z,77.80
2022-09-20T09:39:38.170Z,78.27
2022-09-20T09:42:24.006Z,76.45
2022-09-20T09:44:54.437Z,75.79
2022-09-20T09:47:29.594Z,75.40
2022-09-20T09:50:05.042Z,74.82
2022-09-20T09:52:36.367Z,75.49
2022-09-20T09:55:10.114Z,74.55
2022-09-20T09:57:54.389Z,74.46
2022-09-20T10:00:27.427Z,75.10
2022-09-20T10:03:24.902Z,74.86
2022-09-20T10:06:01.666Z,75.01
2022-09-20T10:08:51.473Z,73.58
2022-09-20T10:11:55.722Z,74.32
2022-09-20T10:14:43.963Z,71.53
2022-09-20T10:17:43.476Z,71.46
2022-09-20T10:20:27.692Z,71.23
2022-09-20T10:23:39.471Z,70.88
2022-09-20T10:25:47.463Z,70.55
2022-09-20T10:28:23.707Z,69.70
2022-09-20T10:31:06.269Z,70.60
2022-09-20T10:34:03.481Z,69.47
2022-09-20T10:36:40.415Z,69.34
2022-09-20T10:39:36.214Z,69.37
2022-09-20T10:42:59.491Z,71.01
2022-09-20T10:46:14.508Z,71.60
2022-09-20T10:48:26.319Z,72.75
2022-09-20T10:51:21.041Z,72.91
2022-09-20T10:54:14.127Z,73.05
2022-09-20T10:56:49.184Z,72.62
2022-09-20T10:59:43.550Z,73.00
2022-09-20T11:02:41.151Z,73.58
2022-09-20T11:05:32.848Z,73.67
2022-09-20T11:08:19.365Z,76.82
2022-09-20T11:11:07.804Z,80.56
2022-09-20T11:14:02.515Z,81.99
2022-09-20T11:16:36.499Z,83.00
2022-09-20T11:19:27.055Z,84.11
2022-09-20T11:22:00.565Z,84.71
2022-09-20T11:24:42.927Z,85.48
2022-09-20T11:27:25.780Z,85.81
2022-09-20T11:30:15.933Z,86.31
2022-09-20T11:33:01.651Z,83.96
2022-09-20T11:35:40.418Z,89.29
2022-09-20T11:38:29.285Z,90.43
2022-09-20T11:41:02.779Z,90.66
2022-09-20T11:43:35.460Z,90.71
2022-09-20T11:46:12.168Z,91.10
2022-09-20T11:48:54.251Z,91.25
2022-09-20T11:51:46.381Z,91.31
2022-09-20T11:54:22.873Z,91.49
2022-09-20T11:57:00.027Z,91.44
2022-09-20T11:59:40.326Z,91.19
2022-09-20T12:02:16.844Z,89.93
2022-09-20T12:04:50.299Z,88.15
2022-09-20T12:07:39.622Z,86.97
2022-09-20T12:10:27.471Z,86.95
2022-09-20T12:13:09.757Z,85.81
2022-09-20T12:15:41.782Z,86.00
2022-09-20T12:18:17.719Z,85.98
2022-09-20T12:21:00.016Z,78.23
2022-09-20T12:23:42.707Z,78.13
2022-09-20T12:26:25.460Z,78.30
2022-09-20T12:28:59.175Z,77.15
2022-09-20T12:31:33.534Z,78.55
2022-09-20T12:34:15.903Z,76.71
2022-09-20T12:36:59.896Z,79.14
2022-09-20T12:39:32.805Z,72.68
2022-09-20T12:42:17.382Z,73.20
2022-09-20T12:44:55.041Z,72.20
2022-09-20T12:47:31.098Z,71.45
2022-09-20T12:50:25.122Z,72.73
2022-09-20T12:52:58.458Z,75.06
2022-09-20T12:55:32.248Z,75.66
2022-09-20T12:58:17.252Z,74.79
2022-09-20T13:01:00.014Z,73.64
2022-09-20T13:03:34.855Z,73.91
2022-09-20T13:06:12.364Z,73.51
2022-09-20T13:09:04.524Z,76.56
2022-09-20T13:11:51.707Z,77.42
2022-09-20T13:14:25.085Z,76.02
2022-09-20T13:17:16.637Z,75.26
2022-09-20T13:19:49.889Z,74.39
2022-09-20T13:22:40.212Z,75.51
2022-09-20T13:25:15.954Z,76.19
2022-09-20T13:28:10.422Z,75.47
2022-09-20T13:30:41.884Z,76.15
2022-09-20T13:33:23.969Z,75.48
2022-09-20T13:35:58.185Z,74.27
2022-09-20T13:38:31.862Z,74.50
2022-09-20T13:41:13.035Z,74.82
2022-09-20T13:43:49.879Z,74.60
2022-09-20T13:46:25.805Z,73.24
2022-09-20T13:49:18.826Z,75.57
2022-09-20T13:51:50.308Z,72.93
2022-09-20T13:54:34.410Z,72.09
2022-09-20T13:57:08.234Z,72.68
2022-09-20T13:59:44.861Z,74.96
2022-09-20T14:02:27.157Z,75.77
2022-09-20T14:05:00.452Z,74.41
2022-09-20T14:07:31.648Z,76.26
2022-09-20T14:10:02.077Z,74.35
2022-09-20T14:12:33.739Z,74.64
2022-09-20T14:15:07.228Z,75.27
2022-09-20T14:17:39.017Z,74.71
2022-09-20T14:20:12.400Z,74.64
2022-09-20T14:22:45.062Z,74.76
2022-09-20T14:25:18.628Z,76.51
2022-09-20T14:27:49.166Z,75.14
2022-09-20T14:30:31.358Z,74.91
2022-09-20T14:33:01.917Z,73.48
2022-09-20T14:35:33.368Z,72.97
2022-09-20T14:38:10.145Z,70.43
2022-09-20T14:40:46.024Z,66.99
2022-09-20T14:43:28.284Z,70.24
2022-09-20T14:46:02.041Z,70.88
2022-09-20T14:48:38.426Z,71.22
2022-09-20T14:51:23.362Z,68.85
2022-09-20T14:53:59.330Z,70.66
2022-09-20T14:56:35.348Z,71.91
2022-09-20T14:59:13.811Z,69.69
2022-09-20T15:01:50.233Z,72.46
2022-09-20T15:04:23.030Z,73.29
2022-09-20T15:06:53.794Z,73.90
2022-09-20T15:09:24.166Z,73.96
2022-09-20T15:12:05.957Z,75.07
2022-09-20T15:14:38.052Z,75.68
2022-09-20T15:17:10.396Z,76.00
2022-09-20T15:19:40.804Z,75.66
2022-09-20T15:22:14.044Z,76.73
2022-09-20T15:24:44.721Z,76.17
2022-09-20T15:27:15.966Z,77.58
2022-09-20T15:29:46.664Z,76.99
2022-09-20T15:32:17.055Z,77.88
2022-09-20T15:34:47.462Z,80.07
2022-09-20T15:37:17.847Z,78.88
2022-09-20T15:39:48.326Z,80.26
2022-09-20T15:42:20.366Z,81.43
2022-09-20T15:44:53.961Z,82.77
2022-09-20T15:47:24.326Z,82.79
2022-09-20T15:49:54.623Z,84.09
2022-09-20T15:52:25.501Z,84.43
2022-09-20T15:54:57.537Z,85.32
2022-09-20T15:57:28.019Z,86.26
2022-09-20T15:59:59.391Z,86.59
2022-09-20T16:02:31.115Z,86.41
2022-09-20T16:05:01.949Z,86.78
2022-09-20T16:07:32.323Z,87.10
2022-09-20T16:10:02.723Z,87.39
2022-09-20T16:12:33.091Z,87.67
2022-09-20T16:15:03.478Z,87.73
2022-09-20T16:17:51.658Z,87.69
2022-09-20T16:20:23.480Z,87.32
2022-09-20T16:22:53.916Z,87.25
2022-09-20T16:25:24.589Z,87.15
2022-09-20T16:27:54.958Z,87.35
2022-09-20T16:30:25.349Z,87.48
2022-09-20T16:32:56.026Z,87.69
2022-09-20T16:35:34.055Z,87.49
2022-09-20T16:38:04.424Z,87.70
2022-09-20T16:40:35.062Z,87.77
2022-09-20T16:43:06.972Z,87.54
2022-09-20T16:45:37.489Z,87.75
2022-09-20T16:48:08.679Z,87.76
2022-09-20T16:50:39.237Z,87.96
2022-09-20T16:53:09.592Z,87.64
2022-09-20T16:55:43.044Z,87.94
2022-09-20T16:58:13.423Z,88.11
2022-09-20T17:00:44.075Z,88.22
2022-09-20T17:03:15.930Z,88.29
2022-09-20T17:05:48.005Z,88.39
2022-09-20T17:08:18.317Z,88.50
2022-09-20T17:10:49.898Z,88.26
2022-09-20T17:13:20.192Z,88.25
2022-09-20T17:15:52.117Z,88.30
2022-09-20T17:18:22.603Z,88.35
2022-09-20T17:20:53.182Z,88.43
2022-09-20T17:23:25.045Z,88.47
2022-09-20T17:26:06.220Z,88.56
2022-09-20T17:28:38.832Z,88.50
2022-09-20T17:31:11.787Z,88.57
2022-09-20T17:33:43.130Z,88.51
2022-09-20T17:36:26.507Z,88.44
2022-09-20T17:39:03.922Z,88.32
2022-09-20T17:41:32.525Z,88.48
2022-09-20T17:44:04.721Z,88.31
2022-09-20T17:46:40.183Z,87.98
2022-09-20T17:49:13.915Z,88.05
2022-09-20T17:51:46.576Z,88.19
2022-09-20T17:54:17.157Z,88.30
2022-09-20T17:56:50.356Z,88.29
2022-09-20T17:59:21.521Z,88.32
2022-09-20T18:01:54.160Z,88.57
2022-09-20T18:04:24.900Z,88.63
2022-09-20T18:06:56.046Z,88.67
2022-09-20T18:09:28.216Z,88.59
2022-09-20T18:11:58.682Z,88.64
2022-09-20T18:14:31.141Z,88.66
2022-09-20T18:17:01.918Z,88.57
2022-09-20T18:19:35.579Z,88.68
2022-09-20T18:22:06.161Z,88.76
2022-09-20T18:24:36.641Z,88.86
2022-09-20T18:27:07.144Z,88.76
2022-09-20T18:29:37.519Z,88.89
2022-09-20T18:32:08.772Z,88.93
2022-09-20T18:34:39.513Z,89.01
2022-09-20T18:37:14.447Z,89.10
2022-09-20T18:39:42.899Z,89.13
2022-09-20T18:42:13.308Z,89.13
2022-09-20T18:44:45.362Z,89.13
2022-09-20T18:47:16.042Z,89.18
2022-09-20T18:49:46.415Z,89.19
2022-09-20T18:52:18.439Z,89.11
2022-09-20T18:54:48.888Z,88.81
2022-09-20T18:57:19.737Z,88.97
2022-09-20T18:59:54.612Z,89.08
2022-09-20T19:02:28.264Z,89.15
2022-09-20T19:05:32.302Z,89.06
2022-09-20T19:08:11.164Z,89.08
2022-09-20T19:10:56.635Z,88.96
2022-09-20T19:13:38.970Z,88.96
2022-09-20T19:16:18.414Z,88.98
2022-09-20T19:18:52.263Z,88.94
2022-09-20T19:21:45.062Z,89.00
2022-09-20T19:24:36.728Z,89.02
2022-09-20T19:27:08.855Z,89.01
2022-09-20T19:29:39.878Z,89.00
2022-09-20T19:32:13.360Z,88.96
2022-09-20T19:34:45.534Z,88.84
2022-09-20T19:37:39.728Z,88.86
2022-09-20T19:40:15.962Z,88.91
2022-09-20T19:43:14.983Z,88.93
2022-09-20T19:45:57.697Z,88.92
2022-09-20T19:48:39.760Z,88.92
2022-09-20T19:51:13.983Z,89.01
2022-09-20T19:53:45.095Z,89.14
2022-09-20T19:56:27.586Z,89.19
2022-09-20T19:58:58.949Z,89.18
2022-09-20T20:01:30.139Z,89.18
2022-09-20T20:04:00.880Z,89.15
2022-09-20T20:06:52.163Z,89.09
2022-09-20T20:09:42.058Z,89.12
2022-09-20T20:12:15.667Z,89.14
2022-09-20T20:15:00.829Z,89.08
2022-09-20T20:17:57.310Z,88.95
2022-09-20T20:20:51.321Z,88.91
2022-09-20T20:23:45.903Z,88.90
2022-09-20T20:26:27.173Z,88.88
2022-09-20T20:28:57.822Z,88.81
2022-09-20T20:31:29.449Z,88.75
2022-09-20T20:34:00.266Z,88.81
2022-09-20T20:36:30.610Z,88.71
2022-09-20T20:39:02.598Z,88.51
2022-09-20T20:41:32.963Z,88.45
2022-09-20T20:44:04.963Z,88.51
2022-09-20T20:46:36.012Z,88.39
2022-09-20T20:49:06.452Z,88.39
2022-09-20T20:51:37.410Z,88.56
2022-09-20T20:54:07.987Z,88.58
2022-09-20T20:56:38.366Z,88.74
2022-09-20T20:59:08.835Z,88.68
2022-09-20T21:01:45.933Z,88.67
2022-09-20T21:04:16.825Z,88.32
2022-09-20T21:06:47.454Z,88.31
2022-09-20T21:09:17.796Z,88.28
2022-09-20T21:11:48.480Z,88.37
2022-09-20T21:14:18.835Z,88.21
2022-09-20T21:16:51.126Z,88.18
2022-09-20T21:19:23.144Z,88.27
2022-09-20T21:21:53.398Z,88.12
2022-09-20T21:24:23.700Z,87.88
2022-09-20T21:26:54.078Z,88.05
2022-09-20T21:29:24.363Z,88.05
2022-09-20T21:31:54.745Z,88.08
2022-09-20T21:34:25.400Z,88.32
2022-09-20T21:36:55.933Z,88.63
2022-09-20T21:39:26.327Z,88.37
2022-09-20T21:41:57.384Z,88.23
2022-09-20T21:44:27.682Z,88.15
2022-09-20T21:46:58.062Z,88.27
2022-09-20T21:49:28.477Z,88.29
2022-09-20T21:51:58.872Z,88.26
2022-09-20T21:54:29.172Z,88.19
2022-09-20T21:56:59.584Z,88.32
2022-09-20T21:59:29.985Z,88.24
2022-09-20T22:02:00.442Z,88.30
2022-09-20T22:04:30.721Z,88.31
2022-09-20T22:07:02.838Z,88.39
2022-09-20T22:09:33.135Z,88.36
2022-09-20T22:12:03.644Z,88.11
2022-09-20T22:14:35.025Z,88.29
2022-09-20T22:17:05.381Z,88.37
2022-09-20T22:19:36.376Z,88.32
2022-09-20T22:22:06.926Z,88.35
2022-09-20T22:24:39.229Z,88.31
2022-09-20T22:27:09.611Z,88.44
2022-09-20T22:29:40.022Z,88.48
2022-09-20T22:32:10.421Z,88.59
2022-09-20T22:34:40.763Z,88.70
2022-09-20T22:37:11.147Z,88.73
2022-09-20T22:39:41.731Z,88.83
2022-09-20T22:42:12.143Z,88.95
2022-09-20T22:44:42.384Z,89.04
2022-09-20T22:47:12.789Z,88.95
2022-09-20T22:49:43.259Z,88.95
2022-09-20T22:52:13.572Z,88.89
2022-09-20T22:54:45.543Z,88.84
2022-09-20T22:57:20.505Z,88.79
2022-09-20T22:59:50.852Z,88.75
2022-09-20T23:02:21.215Z,88.60
2022-09-20T23:04:51.617Z,88.66
2022-09-20T23:07:21.998Z,88.74
2022-09-20T23:09:52.549Z,88.78
2022-09-20T23:12:23.021Z,88.83
2022-09-20T23:14:53.963Z,88.87
2022-09-20T23:17:24.508Z,88.82
2022-09-20T23:19:54.901Z,88.82
2022-09-20T23:22:25.269Z,88.91
2022-09-20T23:24:55.675Z,89.06
2022-09-20T23:27:26.056Z,89.03
2022-09-20T23:29:56.461Z,89.03
2022-09-20T23:32:26.808Z,89.04
2022-09-20T23:34:57.181Z,89.19
2022-09-20T23:37:27.689Z,89.18
2022-09-20T23:39:58.180Z,89.22
2022-09-20T23:42:28.516Z,89.17
2022-09-20T23:44:58.988Z,89.13
2022-09-20T23:47:29.408Z,89.17
2022-09-20T23:49:59.684Z,89.26
2022-09-20T23:52:30.378Z,89.27
2022-09-20T23:55:00.756Z,89.21
2022-09-20T23:57:31.091Z,89.21
